sensor_id;sensor_type;location;lat;lon;timestamp;pressure;altitude;pressure_sealevel;temperature;humidity
54910;BME280;63189;51.240;9.964;2024-02-23T00:01:45;95073.81;;;6.84;86.99
54910;BME280;63189;51.240;9.964;2024-02-23T00:04:11;95091.94;;;6.84;84.01
54910;BME280;63189;51.240;9.964;2024-02-23T00:06:36;95090.38;;;6.82;86.14
54910;BME280;63189;51.240;9.964;2024-02-23T00:09:02;95113.97;;;6.77;86.05
54910;BME280;63189;51.240;9.964;2024-02-23T00:11:27;95101.13;;;6.76;86.97
54910;BME280;63189;51.240;9.964;2024-02-23T00:13:55;95106.69;;;6.70;86.99
54910;BME280;63189;51.240;9.964;2024-02-23T00:16:22;95087.72;;;6.69;87.00
54910;BME280;63189;51.240;9.964;2024-02-23T00:18:47;95092.16;;;6.67;87.16
54910;BME280;63189;51.240;9.964;2024-02-23T00:21:13;95099.06;;;6.66;86.98
54910;BME280;63189;51.240;9.964;2024-02-23T00:23:38;95099.28;;;6.63;88.29
54910;BME280;63189;51.240;9.964;2024-02-23T00:26:03;95114.16;;;6.60;88.10
54910;BME280;63189;51.240;9.964;2024-02-23T00:28:29;95129.78;;;6.58;89.28
54910;BME280;63189;51.240;9.964;2024-02-23T00:30:54;95139.47;;;6.55;88.74
54910;BME280;63189;51.240;9.964;2024-02-23T00:33:19;95139.38;;;6.56;88.12
54910;BME280;63189;51.240;9.964;2024-02-23T00:35:45;95136.91;;;6.55;87.95
54910;BME280;63189;51.240;9.964;2024-02-23T00:38:10;95134.31;;;6.55;87.16
54910;BME280;63189;51.240;9.964;2024-02-23T00:40:36;95155.19;;;6.52;85.99
54910;BME280;63189;51.240;9.964;2024-02-23T00:43:01;95160.72;;;6.46;84.65
54910;BME280;63189;51.240;9.964;2024-02-23T00:45:28;95157.31;;;6.45;83.41
54910;BME280;63189;51.240;9.964;2024-02-23T00:47:53;95180.78;;;6.42;82.25
54910;BME280;63189;51.240;9.964;2024-02-23T00:50:19;95188.38;;;6.45;83.18
54910;BME280;63189;51.240;9.964;2024-02-23T00:52:44;95203.34;;;6.40;81.57
54910;BME280;63189;51.240;9.964;2024-02-23T00:55:10;95193.19;;;6.37;81.91
54910;BME280;63189;51.240;9.964;2024-02-23T00:57:35;95220.22;;;6.31;80.91
54910;BME280;63189;51.240;9.964;2024-02-23T01:00:03;95221.91;;;6.32;81.14
54910;BME280;63189;51.240;9.964;2024-02-23T01:02:30;95226.31;;;6.30;81.66
54910;BME280;63189;51.240;9.964;2024-02-23T01:04:56;95233.16;;;6.31;82.65
54910;BME280;63189;51.240;9.964;2024-02-23T01:07:23;95241.22;;;6.27;83.15
54910;BME280;63189;51.240;9.964;2024-02-23T01:09:49;95251.97;;;6.19;84.93
54910;BME280;63189;51.240;9.964;2024-02-23T01:12:14;95255.56;;;6.17;84.37
54910;BME280;63189;51.240;9.964;2024-02-23T01:14:39;95257.41;;;6.15;83.57
54910;BME280;63189;51.240;9.964;2024-02-23T01:17:05;95256.09;;;6.07;84.08
54910;BME280;63189;51.240;9.964;2024-02-23T01:19:30;95287.22;;;6.06;83.12
54910;BME280;63189;51.240;9.964;2024-02-23T01:21:56;95272.53;;;6.06;84.53
54910;BME280;63189;51.240;9.964;2024-02-23T01:24:25;95298.41;;;6.06;83.75
54910;BME280;63189;51.240;9.964;2024-02-23T01:26:53;95294.16;;;6.05;82.75
54910;BME280;63189;51.240;9.964;2024-02-23T01:29:19;95291.56;;;6.05;83.73
54910;BME280;63189;51.240;9.964;2024-02-23T01:31:44;95294.38;;;6.01;83.40
54910;BME280;63189;51.240;9.964;2024-02-23T01:34:10;95316.16;;;5.97;81.51
54910;BME280;63189;51.240;9.964;2024-02-23T01:36:35;95303.16;;;5.98;82.80
54910;BME280;63189;51.240;9.964;2024-02-23T01:39:01;95308.41;;;5.97;82.33
54910;BME280;63189;51.240;9.964;2024-02-23T01:41:27;95312.91;;;5.93;83.20
54910;BME280;63189;51.240;9.964;2024-02-23T01:43:52;95316.41;;;5.92;81.47
54910;BME280;63189;51.240;9.964;2024-02-23T01:46:17;95355.66;;;5.83;80.71
54910;BME280;63189;51.240;9.964;2024-02-23T01:48:44;95371.09;;;5.85;79.28
54910;BME280;63189;51.240;9.964;2024-02-23T01:51:11;95369.09;;;5.74;77.64
54910;BME280;63189;51.240;9.964;2024-02-23T01:53:36;95350.88;;;5.60;78.01
54910;BME280;63189;51.240;9.964;2024-02-23T01:56:03;95365.31;;;5.64;77.27
54910;BME280;63189;51.240;9.964;2024-02-23T01:58:29;95365.63;;;5.58;78.46
54910;BME280;63189;51.240;9.964;2024-02-23T02:00:56;95367.03;;;5.47;76.37
54910;BME280;63189;51.240;9.964;2024-02-23T02:03:21;95375.16;;;5.40;76.82
54910;BME280;63189;51.240;9.964;2024-02-23T02:05:47;95383.00;;;5.38;77.53
54910;BME280;63189;51.240;9.964;2024-02-23T02:08:12;95374.66;;;5.33;77.43
54910;BME280;63189;51.240;9.964;2024-02-23T02:10:38;95375.50;;;5.34;78.05
54910;BME280;63189;51.240;9.964;2024-02-23T02:13:04;95388.53;;;5.31;78.12
54910;BME280;63189;51.240;9.964;2024-02-23T02:15:30;95387.13;;;5.25;78.54
54910;BME280;63189;51.240;9.964;2024-02-23T02:17:55;95411.28;;;5.24;77.75
54910;BME280;63189;51.240;9.964;2024-02-23T02:20:24;95402.63;;;5.25;78.42
54910;BME280;63189;51.240;9.964;2024-02-23T02:22:50;95414.78;;;5.23;79.01
54910;BME280;63189;51.240;9.964;2024-02-23T02:25:15;95402.25;;;5.15;78.97
54910;BME280;63189;51.240;9.964;2024-02-23T02:27:41;95409.75;;;5.20;79.88
54910;BME280;63189;51.240;9.964;2024-02-23T02:30:06;95420.25;;;5.17;80.00
54910;BME280;63189;51.240;9.964;2024-02-23T02:32:32;95417.00;;;5.13;79.85
54910;BME280;63189;51.240;9.964;2024-02-23T02:34:58;95420.63;;;5.09;80.97
54910;BME280;63189;51.240;9.964;2024-02-23T02:37:24;95425.84;;;5.08;80.22
54910;BME280;63189;51.240;9.964;2024-02-23T02:39:49;95432.38;;;4.98;80.43
54910;BME280;63189;51.240;9.964;2024-02-23T02:42:14;95441.69;;;5.02;80.97
54910;BME280;63189;51.240;9.964;2024-02-23T02:44:40;95443.47;;;5.00;81.37
54910;BME280;63189;51.240;9.964;2024-02-23T02:47:05;95453.94;;;4.97;82.01
54910;BME280;63189;51.240;9.964;2024-02-23T02:49:31;95447.41;;;4.89;81.63
54910;BME280;63189;51.240;9.964;2024-02-23T02:51:56;95456.28;;;4.84;82.31
54910;BME280;63189;51.240;9.964;2024-02-23T02:54:21;95461.38;;;4.85;83.15
54910;BME280;63189;51.240;9.964;2024-02-23T02:56:47;95462.56;;;4.78;83.17
54910;BME280;63189;51.240;9.964;2024-02-23T02:59:13;95461.91;;;4.75;84.51
54910;BME280;63189;51.240;9.964;2024-02-23T03:01:39;95466.31;;;4.73;85.03
54910;BME280;63189;51.240;9.964;2024-02-23T03:04:04;95458.75;;;4.68;85.07
54910;BME280;63189;51.240;9.964;2024-02-23T03:06:30;95475.31;;;4.64;85.25
54910;BME280;63189;51.240;9.964;2024-02-23T03:08:55;95473.00;;;4.58;85.44
54910;BME280;63189;51.240;9.964;2024-02-23T03:11:20;95476.78;;;4.51;85.86
54910;BME280;63189;51.240;9.964;2024-02-23T03:13:46;95491.28;;;4.53;86.27
54910;BME280;63189;51.240;9.964;2024-02-23T03:16:20;95493.19;;;4.50;86.91
54910;BME280;63189;51.240;9.964;2024-02-23T03:18:46;95488.16;;;4.47;86.79
54910;BME280;63189;51.240;9.964;2024-02-23T03:21:12;95503.00;;;4.42;87.15
54910;BME280;63189;51.240;9.964;2024-02-23T03:23:39;95489.47;;;4.37;87.64
54910;BME280;63189;51.240;9.964;2024-02-23T03:26:06;95493.44;;;4.25;87.44
54910;BME280;63189;51.240;9.964;2024-02-23T03:28:32;95504.41;;;4.30;88.44
54910;BME280;63189;51.240;9.964;2024-02-23T03:30:57;95509.91;;;4.22;88.64
54910;BME280;63189;51.240;9.964;2024-02-23T03:33:22;95513.13;;;4.27;87.90
54910;BME280;63189;51.240;9.964;2024-02-23T03:35:48;95528.09;;;4.19;87.44
54910;BME280;63189;51.240;9.964;2024-02-23T03:38:13;95537.66;;;4.17;87.54
54910;BME280;63189;51.240;9.964;2024-02-23T03:40:38;95535.84;;;4.19;88.10
54910;BME280;63189;51.240;9.964;2024-02-23T03:43:04;95536.03;;;4.15;87.63
54910;BME280;63189;51.240;9.964;2024-02-23T03:45:31;95531.69;;;4.15;87.96
54910;BME280;63189;51.240;9.964;2024-02-23T03:47:56;95526.75;;;4.11;88.32
54910;BME280;63189;51.240;9.964;2024-02-23T03:50:22;95537.06;;;4.11;87.90
54910;BME280;63189;51.240;9.964;2024-02-23T03:52:47;95554.53;;;4.04;87.54
54910;BME280;63189;51.240;9.964;2024-02-23T03:55:12;95548.44;;;4.07;88.39
54910;BME280;63189;51.240;9.964;2024-02-23T03:57:37;95559.59;;;4.07;88.12
54910;BME280;63189;51.240;9.964;2024-02-23T04:00:03;95550.44;;;4.00;88.91
54910;BME280;63189;51.240;9.964;2024-02-23T04:02:29;95558.03;;;4.03;89.75
54910;BME280;63189;51.240;9.964;2024-02-23T04:04:54;95553.16;;;3.97;89.16
54910;BME280;63189;51.240;9.964;2024-02-23T04:07:19;95551.41;;;3.97;89.81
54910;BME280;63189;51.240;9.964;2024-02-23T04:09:45;95558.56;;;3.91;90.53
54910;BME280;63189;51.240;9.964;2024-02-23T04:12:10;95574.22;;;3.86;90.65
54910;BME280;63189;51.240;9.964;2024-02-23T04:14:36;95556.34;;;3.82;91.91
54910;BME280;63189;51.240;9.964;2024-02-23T04:17:04;95553.84;;;3.80;90.62
54910;BME280;63189;51.240;9.964;2024-02-23T04:19:29;95571.19;;;3.76;89.64
54910;BME280;63189;51.240;9.964;2024-02-23T04:21:55;95569.25;;;3.82;91.02
54910;BME280;63189;51.240;9.964;2024-02-23T04:24:20;95583.34;;;3.73;91.18
54910;BME280;63189;51.240;9.964;2024-02-23T04:26:45;95594.69;;;3.69;91.43
54910;BME280;63189;51.240;9.964;2024-02-23T04:29:11;95588.19;;;3.60;92.22
54910;BME280;63189;51.240;9.964;2024-02-23T04:31:37;95598.13;;;3.69;92.01
54910;BME280;63189;51.240;9.964;2024-02-23T04:34:03;95599.25;;;3.62;91.81
54910;BME280;63189;51.240;9.964;2024-02-23T04:36:28;95606.34;;;3.57;91.81
54910;BME280;63189;51.240;9.964;2024-02-23T04:38:54;95620.22;;;3.53;91.54
54910;BME280;63189;51.240;9.964;2024-02-23T04:41:20;95619.41;;;3.53;90.88
54910;BME280;63189;51.240;9.964;2024-02-23T04:43:47;95635.75;;;3.52;91.43
54910;BME280;63189;51.240;9.964;2024-02-23T04:46:12;95627.06;;;3.54;91.29
54910;BME280;63189;51.240;9.964;2024-02-23T04:48:38;95642.78;;;3.48;91.72
54910;BME280;63189;51.240;9.964;2024-02-23T04:51:04;95657.34;;;3.49;92.04
54910;BME280;63189;51.240;9.964;2024-02-23T04:53:29;95647.88;;;3.50;92.89
54910;BME280;63189;51.240;9.964;2024-02-23T04:55:54;95652.03;;;3.52;92.75
54910;BME280;63189;51.240;9.964;2024-02-23T04:58:20;95653.97;;;3.47;92.96
54910;BME280;63189;51.240;9.964;2024-02-23T05:00:46;95655.47;;;3.53;92.92
54910;BME280;63189;51.240;9.964;2024-02-23T05:03:11;95657.94;;;3.56;92.40
54910;BME280;63189;51.240;9.964;2024-02-23T05:05:37;95669.16;;;3.55;92.01
54910;BME280;63189;51.240;9.964;2024-02-23T05:08:03;95673.19;;;3.60;92.68
54910;BME280;63189;51.240;9.964;2024-02-23T05:10:28;95670.47;;;3.65;93.39
54910;BME280;63189;51.240;9.964;2024-02-23T05:12:54;95672.56;;;3.55;93.91
54910;BME280;63189;51.240;9.964;2024-02-23T05:15:20;95686.16;;;3.59;94.24
54910;BME280;63189;51.240;9.964;2024-02-23T05:17:46;95687.00;;;3.59;94.31
54910;BME280;63189;51.240;9.964;2024-02-23T05:20:11;95690.59;;;3.55;92.93
54910;BME280;63189;51.240;9.964;2024-02-23T05:22:38;95700.06;;;3.55;92.84
54910;BME280;63189;51.240;9.964;2024-02-23T05:25:04;95692.38;;;3.53;92.38
54910;BME280;63189;51.240;9.964;2024-02-23T05:27:32;95698.34;;;3.54;91.78
54910;BME280;63189;51.240;9.964;2024-02-23T05:29:58;95698.41;;;3.52;90.77
54910;BME280;63189;51.240;9.964;2024-02-23T05:32:23;95697.66;;;3.50;88.95
54910;BME280;63189;51.240;9.964;2024-02-23T05:34:49;95701.91;;;3.51;89.66
54910;BME280;63189;51.240;9.964;2024-02-23T05:37:18;95702.50;;;3.58;90.57
54910;BME280;63189;51.240;9.964;2024-02-23T05:39:43;95700.00;;;3.56;91.08
54910;BME280;63189;51.240;9.964;2024-02-23T05:42:14;95711.78;;;3.62;91.56
54910;BME280;63189;51.240;9.964;2024-02-23T05:44:39;95706.81;;;3.57;92.16
54910;BME280;63189;51.240;9.964;2024-02-23T05:47:05;95713.88;;;3.52;91.70
54910;BME280;63189;51.240;9.964;2024-02-23T05:49:30;95717.41;;;3.50;91.71
54910;BME280;63189;51.240;9.964;2024-02-23T05:51:55;95723.28;;;3.53;92.08
54910;BME280;63189;51.240;9.964;2024-02-23T05:54:21;95721.50;;;3.55;91.51
54910;BME280;63189;51.240;9.964;2024-02-23T05:56:46;95710.41;;;3.53;88.42
54910;BME280;63189;51.240;9.964;2024-02-23T05:59:12;95716.34;;;3.55;91.09
54910;BME280;63189;51.240;9.964;2024-02-23T06:01:37;95727.59;;;3.53;91.05
54910;BME280;63189;51.240;9.964;2024-02-23T06:04:03;95720.84;;;3.50;91.47
54910;BME280;63189;51.240;9.964;2024-02-23T06:06:28;95720.69;;;3.53;90.94
54910;BME280;63189;51.240;9.964;2024-02-23T06:08:53;95723.28;;;3.53;90.92
54910;BME280;63189;51.240;9.964;2024-02-23T06:11:19;95728.56;;;3.50;91.46
54910;BME280;63189;51.240;9.964;2024-02-23T06:13:44;95741.28;;;3.55;91.68
54910;BME280;63189;51.240;9.964;2024-02-23T06:16:10;95732.66;;;3.56;93.09
54910;BME280;63189;51.240;9.964;2024-02-23T06:18:36;95733.72;;;3.50;93.04
54910;BME280;63189;51.240;9.964;2024-02-23T06:21:11;95726.88;;;3.49;94.47
54910;BME280;63189;51.240;9.964;2024-02-23T06:23:36;95727.84;;;3.46;94.80
54910;BME280;63189;51.240;9.964;2024-02-23T06:26:02;95730.38;;;3.48;93.69
54910;BME280;63189;51.240;9.964;2024-02-23T06:28:27;95753.66;;;3.45;92.98
54910;BME280;63189;51.240;9.964;2024-02-23T06:30:52;95744.84;;;3.51;94.49
54910;BME280;63189;51.240;9.964;2024-02-23T06:33:18;95739.00;;;3.47;93.51
54910;BME280;63189;51.240;9.964;2024-02-23T06:35:43;95745.13;;;3.43;93.23
54910;BME280;63189;51.240;9.964;2024-02-23T06:38:08;95752.59;;;3.51;92.43
54910;BME280;63189;51.240;9.964;2024-02-23T06:40:35;95747.63;;;3.46;93.39
54910;BME280;63189;51.240;9.964;2024-02-23T06:43:00;95762.06;;;3.50;92.38
54910;BME280;63189;51.240;9.964;2024-02-23T06:45:25;95764.63;;;3.50;92.99
54910;BME280;63189;51.240;9.964;2024-02-23T06:47:51;95766.31;;;3.51;91.97
54910;BME280;63189;51.240;9.964;2024-02-23T06:50:16;95776.44;;;3.56;93.02
54910;BME280;63189;51.240;9.964;2024-02-23T06:52:42;95785.13;;;3.53;90.42
54910;BME280;63189;51.240;9.964;2024-02-23T06:55:07;95784.34;;;3.51;90.20
54910;BME280;63189;51.240;9.964;2024-02-23T06:57:34;95773.25;;;3.49;91.20
54910;BME280;63189;51.240;9.964;2024-02-23T07:00:00;95790.44;;;3.48;90.46
54910;BME280;63189;51.240;9.964;2024-02-23T07:02:25;95784.34;;;3.51;90.89
54910;BME280;63189;51.240;9.964;2024-02-23T07:04:51;95801.31;;;3.57;90.04
54910;BME280;63189;51.240;9.964;2024-02-23T07:07:16;95804.66;;;3.59;90.22
54910;BME280;63189;51.240;9.964;2024-02-23T07:09:41;95811.56;;;3.58;90.14
54910;BME280;63189;51.240;9.964;2024-02-23T07:12:07;95810.59;;;3.61;89.68
54910;BME280;63189;51.240;9.964;2024-02-23T07:14:32;95821.69;;;3.63;89.50
54910;BME280;63189;51.240;9.964;2024-02-23T07:16:58;95811.50;;;3.60;88.23
54910;BME280;63189;51.240;9.964;2024-02-23T07:19:23;95813.13;;;3.62;89.11
54910;BME280;63189;51.240;9.964;2024-02-23T07:21:48;95814.91;;;3.60;89.25
54910;BME280;63189;51.240;9.964;2024-02-23T07:24:14;95828.69;;;3.59;89.19
54910;BME280;63189;51.240;9.964;2024-02-23T07:26:39;95833.06;;;3.57;88.36
54910;BME280;63189;51.240;9.964;2024-02-23T07:29:05;95831.34;;;3.58;88.48
54910;BME280;63189;51.240;9.964;2024-02-23T07:31:31;95839.72;;;3.63;87.57
54910;BME280;63189;51.240;9.964;2024-02-23T07:33:57;95838.78;;;3.65;87.59
54910;BME280;63189;51.240;9.964;2024-02-23T07:36:22;95853.22;;;3.69;87.79
54910;BME280;63189;51.240;9.964;2024-02-23T07:38:48;95850.59;;;3.71;88.46
54910;BME280;63189;51.240;9.964;2024-02-23T07:41:14;95853.09;;;3.72;88.09
54910;BME280;63189;51.240;9.964;2024-02-23T07:43:40;95849.56;;;3.75;88.10
54910;BME280;63189;51.240;9.964;2024-02-23T07:46:05;95864.88;;;3.80;88.57
54910;BME280;63189;51.240;9.964;2024-02-23T07:48:34;95862.94;;;3.85;88.54
54910;BME280;63189;51.240;9.964;2024-02-23T07:50:59;95868.09;;;3.85;88.24
54910;BME280;63189;51.240;9.964;2024-02-23T07:53:24;95861.19;;;3.87;88.77
54910;BME280;63189;51.240;9.964;2024-02-23T07:55:50;95861.19;;;3.87;88.57
54910;BME280;63189;51.240;9.964;2024-02-23T07:58:15;95866.03;;;3.94;88.04
54910;BME280;63189;51.240;9.964;2024-02-23T08:00:40;95859.19;;;3.93;86.79
54910;BME280;63189;51.240;9.964;2024-02-23T08:03:06;95867.75;;;3.94;88.45
54910;BME280;63189;51.240;9.964;2024-02-23T08:05:32;95863.34;;;3.97;88.60
54910;BME280;63189;51.240;9.964;2024-02-23T08:07:58;95867.19;;;4.09;89.00
54910;BME280;63189;51.240;9.964;2024-02-23T08:10:23;95878.22;;;4.13;87.54
54910;BME280;63189;51.240;9.964;2024-02-23T08:12:50;95871.50;;;4.09;85.91
54910;BME280;63189;51.240;9.964;2024-02-23T08:15:16;95874.03;;;4.10;86.25
54910;BME280;63189;51.240;9.964;2024-02-23T08:17:41;95872.94;;;4.16;86.63
54910;BME280;63189;51.240;9.964;2024-02-23T08:20:07;95878.34;;;4.31;86.68
54910;BME280;63189;51.240;9.964;2024-02-23T08:22:33;95871.88;;;4.21;86.76
54910;BME280;63189;51.240;9.964;2024-02-23T08:24:58;95888.91;;;4.25;87.22
54910;BME280;63189;51.240;9.964;2024-02-23T08:27:23;95888.31;;;4.19;86.06
54910;BME280;63189;51.240;9.964;2024-02-23T08:29:49;95886.38;;;4.24;87.15
54910;BME280;63189;51.240;9.964;2024-02-23T08:32:14;95896.00;;;4.20;86.25
54910;BME280;63189;51.240;9.964;2024-02-23T08:34:40;95892.50;;;4.21;86.87
54910;BME280;63189;51.240;9.964;2024-02-23T08:37:05;95897.78;;;4.18;86.02
54910;BME280;63189;51.240;9.964;2024-02-23T08:39:30;95909.31;;;4.31;88.17
54910;BME280;63189;51.240;9.964;2024-02-23T08:41:56;95901.81;;;4.25;86.43
54910;BME280;63189;51.240;9.964;2024-02-23T08:44:21;95902.47;;;4.30;86.07
54910;BME280;63189;51.240;9.964;2024-02-23T08:46:47;95901.16;;;4.42;88.21
54910;BME280;63189;51.240;9.964;2024-02-23T08:49:13;95905.84;;;4.54;87.29
54910;BME280;63189;51.240;9.964;2024-02-23T08:51:38;95906.19;;;4.67;87.62
54910;BME280;63189;51.240;9.964;2024-02-23T08:54:04;95892.13;;;4.74;86.85
54910;BME280;63189;51.240;9.964;2024-02-23T08:56:30;95891.66;;;5.07;87.16
54910;BME280;63189;51.240;9.964;2024-02-23T08:58:56;95901.34;;;5.42;86.35
54910;BME280;63189;51.240;9.964;2024-02-23T09:01:22;95903.53;;;5.70;84.26
54910;BME280;63189;51.240;9.964;2024-02-23T09:03:47;95895.50;;;6.16;84.46
54910;BME280;63189;51.240;9.964;2024-02-23T09:06:13;95901.94;;;6.26;81.41
54910;BME280;63189;51.240;9.964;2024-02-23T09:08:38;95899.34;;;6.26;80.46
54910;BME280;63189;51.240;9.964;2024-02-23T09:11:04;95884.59;;;6.28;80.84
54910;BME280;63189;51.240;9.964;2024-02-23T09:13:29;95889.28;;;6.56;78.29
54910;BME280;63189;51.240;9.964;2024-02-23T09:15:55;95902.34;;;6.72;78.29
54910;BME280;63189;51.240;9.964;2024-02-23T09:18:20;95903.03;;;6.39;79.65
54910;BME280;63189;51.240;9.964;2024-02-23T09:20:46;95909.16;;;6.55;79.59
54910;BME280;63189;51.240;9.964;2024-02-23T09:23:11;95897.72;;;6.95;78.47
54910;BME280;63189;51.240;9.964;2024-02-23T09:25:37;95906.34;;;6.79;78.24
54910;BME280;63189;51.240;9.964;2024-02-23T09:28:03;95912.03;;;6.68;77.15
54910;BME280;63189;51.240;9.964;2024-02-23T09:30:28;95911.66;;;6.21;77.32
54910;BME280;63189;51.240;9.964;2024-02-23T09:32:54;95909.81;;;6.04;79.98
54910;BME280;63189;51.240;9.964;2024-02-23T09:35:19;95906.69;;;6.16;80.81
54910;BME280;63189;51.240;9.964;2024-02-23T09:37:45;95910.66;;;6.23;79.84
54910;BME280;63189;51.240;9.964;2024-02-23T09:40:11;95898.28;;;6.30;79.99
54910;BME280;63189;51.240;9.964;2024-02-23T09:42:37;95904.28;;;6.49;79.55
54910;BME280;63189;51.240;9.964;2024-02-23T09:45:05;95892.34;;;6.28;75.36
54910;BME280;63189;51.240;9.964;2024-02-23T09:47:32;95887.91;;;6.49;78.37
54910;BME280;63189;51.240;9.964;2024-02-23T09:49:58;95885.88;;;6.55;77.02
54910;BME280;63189;51.240;9.964;2024-02-23T09:52:25;95882.56;;;6.71;77.23
54910;BME280;63189;51.240;9.964;2024-02-23T09:54:54;95883.47;;;7.39;76.58
54910;BME280;63189;51.240;9.964;2024-02-23T09:57:20;95875.72;;;7.88;74.70
54910;BME280;63189;51.240;9.964;2024-02-23T09:59:48;95877.41;;;7.89;74.30
54910;BME280;63189;51.240;9.964;2024-02-23T10:02:17;95867.94;;;7.72;69.32
54910;BME280;63189;51.240;9.964;2024-02-23T10:04:43;95885.66;;;7.79;72.32
54910;BME280;63189;51.240;9.964;2024-02-23T10:07:09;95877.16;;;7.60;72.09
54910;BME280;63189;51.240;9.964;2024-02-23T10:09:35;95874.09;;;7.69;73.18
54910;BME280;63189;51.240;9.964;2024-02-23T10:12:01;95882.50;;;7.41;70.92
54910;BME280;63189;51.240;9.964;2024-02-23T10:14:27;95870.44;;;7.73;70.34
54910;BME280;63189;51.240;9.964;2024-02-23T10:16:52;95874.94;;;8.19;70.15
54910;BME280;63189;51.240;9.964;2024-02-23T10:19:22;95891.88;;;8.42;69.32
54910;BME280;63189;51.240;9.964;2024-02-23T10:21:54;95890.66;;;8.00;65.81
54910;BME280;63189;51.240;9.964;2024-02-23T10:24:19;95891.91;;;7.93;66.17
54910;BME280;63189;51.240;9.964;2024-02-23T10:26:45;95878.75;;;7.96;64.68
54910;BME280;63189;51.240;9.964;2024-02-23T10:29:10;95879.16;;;7.72;66.66
54910;BME280;63189;51.240;9.964;2024-02-23T10:31:36;95883.78;;;7.33;67.68
54910;BME280;63189;51.240;9.964;2024-02-23T10:34:07;95883.19;;;7.10;68.73
54910;BME280;63189;51.240;9.964;2024-02-23T10:36:41;95895.81;;;6.82;68.44
54910;BME280;63189;51.240;9.964;2024-02-23T10:39:11;95897.09;;;6.73;69.71
54910;BME280;63189;51.240;9.964;2024-02-23T10:41:36;95891.78;;;6.93;71.01
54910;BME280;63189;51.240;9.964;2024-02-23T10:44:05;95891.09;;;7.24;71.29
54910;BME280;63189;51.240;9.964;2024-02-23T10:46:33;95889.84;;;7.49;70.83
54910;BME280;63189;51.240;9.964;2024-02-23T10:48:59;95910.88;;;7.60;69.03
54910;BME280;63189;51.240;9.964;2024-02-23T10:51:26;95900.56;;;7.43;68.41
54910;BME280;63189;51.240;9.964;2024-02-23T10:53:52;95900.72;;;7.22;69.35
54910;BME280;63189;51.240;9.964;2024-02-23T10:56:18;95894.81;;;7.36;71.03
54910;BME280;63189;51.240;9.964;2024-02-23T10:58:43;95888.59;;;7.23;68.26
54910;BME280;63189;51.240;9.964;2024-02-23T11:01:09;95888.28;;;7.12;70.41
54910;BME280;63189;51.240;9.964;2024-02-23T11:03:36;95898.97;;;6.88;68.97
54910;BME280;63189;51.240;9.964;2024-02-23T11:06:06;95905.84;;;6.71;69.04
54910;BME280;63189;51.240;9.964;2024-02-23T11:08:33;95917.00;;;6.54;68.83
54910;BME280;63189;51.240;9.964;2024-02-23T11:11:07;95900.94;;;6.47;69.75
54910;BME280;63189;51.240;9.964;2024-02-23T11:13:39;95905.41;;;6.44;71.87
54910;BME280;63189;51.240;9.964;2024-02-23T11:16:06;95895.56;;;6.33;72.31
54910;BME280;63189;51.240;9.964;2024-02-23T11:18:39;95889.28;;;6.20;70.58
54910;BME280;63189;51.240;9.964;2024-02-23T11:21:05;95891.94;;;6.18;73.06
54910;BME280;63189;51.240;9.964;2024-02-23T11:23:48;95892.56;;;6.23;74.04
54910;BME280;63189;51.240;9.964;2024-02-23T11:26:15;95883.38;;;6.35;74.15
54910;BME280;63189;51.240;9.964;2024-02-23T11:28:51;95899.28;;;6.63;73.32
54910;BME280;63189;51.240;9.964;2024-02-23T11:31:22;95899.69;;;6.73;70.10
54910;BME280;63189;51.240;9.964;2024-02-23T11:33:53;95892.75;;;6.74;69.51
54910;BME280;63189;51.240;9.964;2024-02-23T11:36:38;95894.31;;;6.78;69.64
54910;BME280;63189;51.240;9.964;2024-02-23T11:39:04;95899.53;;;6.59;68.33
54910;BME280;63189;51.240;9.964;2024-02-23T11:41:30;95899.03;;;6.51;67.30
54910;BME280;63189;51.240;9.964;2024-02-23T11:43:56;95892.34;;;6.47;68.08
54910;BME280;63189;51.240;9.964;2024-02-23T11:46:24;95889.03;;;6.43;66.97
54910;BME280;63189;51.240;9.964;2024-02-23T11:48:50;95891.13;;;6.35;67.15
54910;BME280;63189;51.240;9.964;2024-02-23T11:51:25;95891.78;;;6.40;66.92
54910;BME280;63189;51.240;9.964;2024-02-23T11:53:52;95901.22;;;6.41;68.73
54910;BME280;63189;51.240;9.964;2024-02-23T11:56:19;95900.59;;;6.36;66.95
54910;BME280;63189;51.240;9.964;2024-02-23T11:58:46;95896.47;;;6.32;67.85
54910;BME280;63189;51.240;9.964;2024-02-23T12:01:12;95887.31;;;6.25;67.82
54910;BME280;63189;51.240;9.964;2024-02-23T12:03:37;95896.19;;;6.38;68.96
54910;BME280;63189;51.240;9.964;2024-02-23T12:06:04;95894.25;;;6.60;69.05
54910;BME280;63189;51.240;9.964;2024-02-23T12:08:31;95890.78;;;6.79;69.69
54910;BME280;63189;51.240;9.964;2024-02-23T12:11:07;95894.94;;;7.00;68.86
54910;BME280;63189;51.240;9.964;2024-02-23T12:13:34;95892.19;;;7.03;66.36
54910;BME280;63189;51.240;9.964;2024-02-23T12:16:00;95880.97;;;7.03;66.83
54910;BME280;63189;51.240;9.964;2024-02-23T12:18:25;95888.81;;;7.01;67.36
54910;BME280;63189;51.240;9.964;2024-02-23T12:21:08;95889.88;;;6.97;66.67
54910;BME280;63189;51.240;9.964;2024-02-23T12:23:44;95874.66;;;6.91;65.79
54910;BME280;63189;51.240;9.964;2024-02-23T12:26:11;95880.47;;;6.77;64.43
54910;BME280;63189;51.240;9.964;2024-02-23T12:28:38;95885.81;;;6.74;65.63
54910;BME280;63189;51.240;9.964;2024-02-23T12:31:04;95880.13;;;6.68;65.70
54910;BME280;63189;51.240;9.964;2024-02-23T12:33:36;95892.59;;;6.59;66.55
54910;BME280;63189;51.240;9.964;2024-02-23T12:36:03;95894.59;;;6.72;67.71
54910;BME280;63189;51.240;9.964;2024-02-23T12:38:30;95886.00;;;6.88;68.78
54910;BME280;63189;51.240;9.964;2024-02-23T12:40:56;95888.88;;;6.82;67.80
54910;BME280;63189;51.240;9.964;2024-02-23T12:43:21;95889.56;;;6.86;67.85
54910;BME280;63189;51.240;9.964;2024-02-23T12:45:49;95892.94;;;6.88;69.08
54910;BME280;63189;51.240;9.964;2024-02-23T12:48:17;95891.25;;;6.87;68.86
54910;BME280;63189;51.240;9.964;2024-02-23T12:50:43;95895.34;;;6.74;68.03
54910;BME280;63189;51.240;9.964;2024-02-23T12:53:13;95895.66;;;6.68;68.49
54910;BME280;63189;51.240;9.964;2024-02-23T12:55:56;95892.88;;;6.53;68.44
54910;BME280;63189;51.240;9.964;2024-02-23T12:58:21;95878.59;;;6.45;69.41
54910;BME280;63189;51.240;9.964;2024-02-23T13:00:46;95884.22;;;6.35;69.10
54910;BME280;63189;51.240;9.964;2024-02-23T13:03:12;95900.47;;;6.39;69.65
54910;BME280;63189;51.240;9.964;2024-02-23T13:05:37;95905.63;;;6.39;70.52